Emneth, United Kingdom
Current Conditions -  °F | °C
As of 6:50 AM on Sunday 23 Nov 2014 (Local Time) from EGYM Reporting Station
Moderate Rain Moderate Rain  
Wind Chill: 42°   Ceiling: 400
Heat Index: 48°   Visibility: 2.3mi
Dew Point: 48°   Wind: 15mph
Humidity: 100%   Direction: 320°NW
Pressure: 29.97"   Gusts: NA
Location:  52.64°N, 0.21°E
Report Text: EGYM 230650Z AUTO 32013KT 3700 RA BKN004/// BKN017/// 09/09 Q1015
Loading
Personal Weather Stations






























Interactive Weather Map New forecast layout! Learn more

10-Day Weather Forecast

Advertisements
Track Severe Weather on mobile